createdAt,value
2022-09-23T00:00:39.464Z,97.72
2022-09-23T00:01:39.524Z,97.72
2022-09-23T00:02:39.504Z,97.72
2022-09-23T00:03:39.449Z,97.92
2022-09-23T00:04:39.417Z,98.33
2022-09-23T00:05:39.409Z,98.33
2022-09-23T00:06:39.396Z,98.23
2022-09-23T00:07:39.409Z,97.92
2022-09-23T00:08:39.370Z,98.13
2022-09-23T00:09:39.373Z,97.61
2022-09-23T00:10:39.366Z,97.92
2022-09-23T00:11:39.348Z,98.85
2022-09-23T00:12:39.360Z,98.07
2022-09-23T00:13:39.318Z,98.69
2022-09-23T00:14:39.316Z,98.58
2022-09-23T00:15:39.311Z,98.69
2022-09-23T00:16:39.318Z,98.49
2022-09-23T00:17:39.318Z,98.69
2022-09-23T00:18:39.261Z,98.49
2022-09-23T00:19:39.254Z,98.18
2022-09-23T00:20:39.239Z,98.38
2022-09-23T00:21:39.245Z,98.85
2022-09-23T00:22:39.214Z,98.90
2022-09-23T00:23:39.202Z,98.49
2022-09-23T00:24:39.218Z,98.79
2022-09-23T00:25:39.211Z,98.74
2022-09-23T00:26:39.173Z,98.84
2022-09-23T00:27:39.160Z,98.79
2022-09-23T00:28:39.173Z,98.94
2022-09-23T00:29:39.143Z,98.84
2022-09-23T00:30:39.157Z,98.32
2022-09-23T00:31:39.112Z,98.69
2022-09-23T00:32:39.102Z,98.74
2022-09-23T00:33:39.143Z,98.94
2022-09-23T00:34:39.101Z,98.84
2022-09-23T00:35:39.065Z,98.74
2022-09-23T00:36:39.054Z,98.94
2022-09-23T00:37:39.045Z,98.74
2022-09-23T00:38:39.029Z,98.58
2022-09-23T00:39:39.040Z,98.58
2022-09-23T00:40:39.046Z,99.05
2022-09-23T00:41:39.002Z,98.74
2022-09-23T00:42:38.985Z,98.74
2022-09-23T00:43:38.985Z,99.05
2022-09-23T00:44:38.983Z,98.63
2022-09-23T00:45:39.020Z,98.74
2022-09-23T00:46:38.940Z,98.32
2022-09-23T00:47:38.931Z,99.15
2022-09-23T00:48:38.919Z,99.15
2022-09-23T00:49:39.055Z,98.94
2022-09-23T00:50:38.918Z,98.63
2022-09-23T00:51:38.906Z,98.43
2022-09-23T00:52:38.873Z,98.63
2022-09-23T00:53:38.863Z,98.63
2022-09-23T00:54:38.873Z,98.94
2022-09-23T00:55:38.842Z,98.53
2022-09-23T00:56:38.848Z,99.35
2022-09-23T00:57:38.820Z,99.25
2022-09-23T00:58:38.802Z,99.51
2022-09-23T00:59:38.817Z,99.61
2022-09-23T01:00:38.782Z,99.56
2022-09-23T01:01:38.828Z,99.61
2022-09-23T01:02:38.803Z,99.35
2022-09-23T01:03:38.750Z,99.40
2022-09-23T01:04:38.739Z,99.09
2022-09-23T01:05:38.766Z,99.51
2022-09-23T01:06:38.743Z,99.30
2022-09-23T01:07:38.705Z,99.30
2022-09-23T01:08:38.689Z,99.30
2022-09-23T01:09:38.699Z,99.09
2022-09-23T01:10:38.701Z,99.09
2022-09-23T01:11:38.662Z,98.99
2022-09-23T01:12:38.669Z,99.19
2022-09-23T01:13:38.635Z,99.19
2022-09-23T01:14:38.626Z,99.19
2022-09-23T01:15:38.611Z,99.15
2022-09-23T01:16:38.693Z,99.30
2022-09-23T01:17:38.593Z,99.15
2022-09-23T01:18:38.581Z,98.99
2022-09-23T01:19:38.567Z,99.30
2022-09-23T01:20:38.559Z,99.15
2022-09-23T01:21:38.584Z,99.35
2022-09-23T01:22:38.531Z,99.77
2022-09-23T01:23:38.521Z,99.62
2022-09-23T01:24:38.508Z,99.87
2022-09-23T01:25:38.501Z,99.66
2022-09-23T01:26:38.488Z,99.87
2022-09-23T01:27:38.501Z,99.77
2022-09-23T01:28:38.463Z,99.87
2022-09-23T01:29:38.457Z,99.35
2022-09-23T01:30:38.658Z,99.51
2022-09-23T01:31:38.577Z,99.51
2022-09-23T01:32:38.463Z,99.82
2022-09-23T01:33:38.408Z,99.51
2022-09-23T01:34:38.397Z,99.40
2022-09-23T01:35:38.385Z,99.82
2022-09-23T01:36:38.375Z,99.55
2022-09-23T01:37:38.400Z,99.92
2022-09-23T01:38:38.369Z,99.51
2022-09-23T01:39:38.339Z,99.71
2022-09-23T01:40:38.389Z,99.76
2022-09-23T01:41:38.342Z,99.76
2022-09-23T01:42:38.341Z,99.61
2022-09-23T01:43:38.316Z,99.71
2022-09-23T01:44:38.282Z,99.76
2022-09-23T01:45:38.271Z,99.86
2022-09-23T01:46:38.284Z,99.76
2022-09-23T01:47:38.250Z,99.96
2022-09-23T01:48:38.275Z,99.76
2022-09-23T01:49:38.234Z,99.55
2022-09-23T01:50:40.383Z,99.76
2022-09-23T01:51:38.211Z,99.76
2022-09-23T01:52:38.210Z,99.44
2022-09-23T01:53:38.222Z,99.96
2022-09-23T01:54:38.175Z,99.76
2022-09-23T01:55:38.159Z,99.86
2022-09-23T01:56:38.157Z,99.99
2022-09-23T01:57:38.136Z,99.99
2022-09-23T01:58:38.153Z,99.55
2022-09-23T01:59:38.115Z,99.99
2022-09-23T02:00:38.129Z,99.99
2022-09-23T02:01:38.118Z,99.99
2022-09-23T02:02:38.164Z,99.99
2022-09-23T02:03:38.073Z,99.96
2022-09-23T02:04:38.061Z,99.99
2022-09-23T02:05:38.049Z,99.99
2022-09-23T02:06:38.032Z,99.99
2022-09-23T02:07:38.055Z,99.99
2022-09-23T02:08:38.041Z,99.99
2022-09-23T02:09:38.018Z,99.99
2022-09-23T02:10:37.994Z,99.99
2022-09-23T02:11:38.024Z,99.99
2022-09-23T02:12:37.964Z,99.99
2022-09-23T02:13:37.978Z,99.99
2022-09-23T02:14:37.946Z,99.99
2022-09-23T02:15:37.935Z,99.99
2022-09-23T02:16:38.015Z,99.91
2022-09-23T02:17:37.913Z,99.99
2022-09-23T02:18:37.897Z,99.99
2022-09-23T02:19:37.911Z,99.99
2022-09-23T02:20:37.898Z,99.99
2022-09-23T02:21:37.894Z,99.99
2022-09-23T02:22:37.861Z,99.99
2022-09-23T02:23:37.843Z,99.99
2022-09-23T02:24:37.832Z,99.99
2022-09-23T02:25:37.839Z,99.99
2022-09-23T02:26:37.830Z,99.99
2022-09-23T02:27:37.797Z,99.99
2022-09-23T02:28:37.912Z,99.99
2022-09-23T02:29:37.810Z,99.99
2022-09-23T02:30:37.786Z,99.99
2022-09-23T02:31:37.846Z,99.99
2022-09-23T02:32:37.742Z,99.99
2022-09-23T02:33:37.852Z,99.99
2022-09-23T02:34:37.739Z,99.99
2022-09-23T02:35:37.710Z,99.99
2022-09-23T02:36:37.717Z,99.99
2022-09-23T02:37:37.706Z,99.99
2022-09-23T02:38:37.679Z,99.99
2022-09-23T02:39:37.664Z,99.99
2022-09-23T02:40:37.724Z,99.99
2022-09-23T02:41:37.681Z,99.99
2022-09-23T02:42:37.627Z,99.99
2022-09-23T02:43:37.616Z,99.99
2022-09-23T02:44:37.604Z,99.99
2022-09-23T02:45:37.630Z,99.99
2022-09-23T02:46:37.605Z,99.99
2022-09-23T02:47:37.592Z,99.99
2022-09-23T02:48:37.561Z,99.99
2022-09-23T02:49:37.549Z,99.99
2022-09-23T02:50:37.543Z,99.99
2022-09-23T02:51:37.536Z,99.99
2022-09-23T02:52:37.535Z,99.99
2022-09-23T02:53:37.506Z,99.99
2022-09-23T02:54:37.495Z,99.99
2022-09-23T02:55:37.561Z,99.99
2022-09-23T02:56:37.515Z,99.99
2022-09-23T02:57:37.501Z,99.99
2022-09-23T02:58:37.489Z,99.99
2022-09-23T02:59:37.437Z,99.99
2022-09-23T03:00:37.428Z,99.99
2022-09-23T03:01:37.495Z,99.99
2022-09-23T03:02:37.454Z,99.99
2022-09-23T03:03:37.448Z,99.99
2022-09-23T03:04:37.383Z,99.99
2022-09-23T03:05:37.377Z,99.99
2022-09-23T03:06:37.361Z,99.99
2022-09-23T03:07:37.369Z,99.99
2022-09-23T03:08:37.335Z,99.99
2022-09-23T03:09:37.328Z,99.99
2022-09-23T03:10:37.317Z,99.99
2022-09-23T03:11:37.325Z,99.99
2022-09-23T03:12:37.296Z,99.99
2022-09-23T03:13:37.297Z,99.99
2022-09-23T03:14:37.268Z,99.99
2022-09-23T03:15:37.258Z,99.99
2022-09-23T03:16:37.300Z,99.99
2022-09-23T03:17:37.260Z,99.99
2022-09-23T03:18:37.230Z,99.99
2022-09-23T03:19:37.214Z,99.99
2022-09-23T03:20:37.202Z,99.99
2022-09-23T03:21:37.189Z,99.99
2022-09-23T03:22:37.200Z,99.99
2022-09-23T03:23:37.170Z,99.99
2022-09-23T03:24:37.162Z,99.99
2022-09-23T03:25:37.203Z,99.99
2022-09-23T03:26:37.136Z,99.99
2022-09-23T03:27:37.146Z,99.99
2022-09-23T03:28:37.118Z,99.99
2022-09-23T03:29:37.124Z,99.99
2022-09-23T03:30:37.106Z,99.99
2022-09-23T03:31:37.151Z,99.99
2022-09-23T03:32:37.095Z,99.99
2022-09-23T03:33:37.076Z,99.99
2022-09-23T03:34:37.048Z,99.99
2022-09-23T03:35:37.059Z,99.99
2022-09-23T03:36:37.055Z,99.99
2022-09-23T03:37:37.013Z,99.99
2022-09-23T03:38:37.002Z,99.99
2022-09-23T03:39:36.996Z,99.99
2022-09-23T03:40:37.093Z,99.99
2022-09-23T03:41:36.964Z,99.99
2022-09-23T03:42:36.982Z,99.99
2022-09-23T03:43:38.927Z,99.99
2022-09-23T03:44:36.945Z,99.99
2022-09-23T03:45:37.078Z,99.99
2022-09-23T03:46:36.910Z,99.99
2022-09-23T03:47:36.905Z,99.99
2022-09-23T03:48:36.887Z,99.99
2022-09-23T03:49:36.878Z,99.99
2022-09-23T03:50:36.891Z,99.99
2022-09-23T03:51:38.047Z,99.99
2022-09-23T03:52:36.843Z,99.99
2022-09-23T03:53:36.831Z,99.99
2022-09-23T03:54:36.824Z,99.99
2022-09-23T03:55:36.841Z,99.99
2022-09-23T03:56:36.805Z,99.99
2022-09-23T03:57:36.809Z,99.99
2022-09-23T03:58:36.779Z,99.99
2022-09-23T03:59:36.841Z,99.99
2022-09-23T04:00:36.839Z,99.99
2022-09-23T04:01:37.067Z,99.99
2022-09-23T04:02:36.733Z,99.99
2022-09-23T04:03:36.723Z,99.99
2022-09-23T04:04:36.713Z,99.99
2022-09-23T04:05:36.723Z,99.99
2022-09-23T04:06:36.687Z,99.99
2022-09-23T04:07:36.675Z,99.99
2022-09-23T04:08:36.666Z,99.99
2022-09-23T04:09:36.656Z,99.99
2022-09-23T04:10:36.662Z,99.99
2022-09-23T04:11:36.637Z,99.99
2022-09-23T04:12:36.646Z,99.99
2022-09-23T04:13:36.612Z,99.99
2022-09-23T04:14:36.623Z,99.99
2022-09-23T04:15:36.607Z,99.99
2022-09-23T04:16:36.619Z,99.99
2022-09-23T04:17:36.608Z,99.99
2022-09-23T04:18:36.552Z,99.99
2022-09-23T04:19:36.572Z,99.99
2022-09-23T04:20:36.532Z,99.99
2022-09-23T04:21:36.519Z,99.99
2022-09-23T04:22:36.509Z,99.99
2022-09-23T04:23:36.499Z,99.99
2022-09-23T04:24:36.508Z,99.99
2022-09-23T04:25:36.478Z,99.99
2022-09-23T04:26:36.465Z,99.99
2022-09-23T04:27:37.885Z,99.99
2022-09-23T04:28:36.442Z,99.99
2022-09-23T04:29:36.431Z,99.99
2022-09-23T04:30:36.422Z,99.99
2022-09-23T04:31:36.430Z,99.99
2022-09-23T04:32:36.420Z,99.99
2022-09-23T04:33:36.403Z,99.99
2022-09-23T04:34:36.374Z,99.99
2022-09-23T04:35:40.031Z,99.99
2022-09-23T04:36:36.355Z,99.99
2022-09-23T04:37:36.361Z,99.99
2022-09-23T04:38:36.351Z,99.99
2022-09-23T04:39:36.337Z,99.99
2022-09-23T04:40:36.494Z,99.99
2022-09-23T04:41:36.296Z,99.99
2022-09-23T04:42:36.289Z,99.99
2022-09-23T04:43:36.275Z,99.99
2022-09-23T04:44:36.285Z,99.99
2022-09-23T04:45:36.253Z,99.99
2022-09-23T04:46:36.285Z,99.99
2022-09-23T04:47:36.231Z,99.99
2022-09-23T04:48:36.226Z,99.99
2022-09-23T04:49:36.248Z,99.99
2022-09-23T04:50:36.200Z,99.99
2022-09-23T04:51:36.188Z,99.99
2022-09-23T04:52:36.181Z,99.99
2022-09-23T04:53:36.167Z,99.99
2022-09-23T04:54:36.176Z,99.99
2022-09-23T04:55:36.146Z,99.99
2022-09-23T04:56:36.162Z,99.99
2022-09-23T04:57:36.141Z,99.99
2022-09-23T04:58:36.109Z,99.99
2022-09-23T04:59:36.115Z,99.99
2022-09-23T05:00:36.102Z,99.99
2022-09-23T05:01:36.370Z,99.99
2022-09-23T05:02:36.223Z,99.99
2022-09-23T05:03:36.051Z,99.99
2022-09-23T05:04:36.066Z,99.99
2022-09-23T05:05:36.043Z,99.99
2022-09-23T05:06:36.019Z,99.99
2022-09-23T05:07:36.028Z,99.99
2022-09-23T05:08:35.996Z,99.99
2022-09-23T05:09:35.983Z,99.99
2022-09-23T05:10:35.992Z,99.99
2022-09-23T05:11:35.959Z,99.99
2022-09-23T05:12:35.968Z,99.99
2022-09-23T05:13:35.966Z,99.99
2022-09-23T05:14:35.956Z,99.99
2022-09-23T05:15:35.938Z,99.99
2022-09-23T05:16:36.003Z,99.99
2022-09-23T05:17:35.896Z,99.99
2022-09-23T05:18:35.889Z,99.99
2022-09-23T05:19:35.875Z,99.99
2022-09-23T05:20:36.064Z,99.99
2022-09-23T05:21:35.868Z,99.99
2022-09-23T05:22:35.840Z,99.99
2022-09-23T05:23:35.832Z,99.99
2022-09-23T05:24:35.820Z,99.99
2022-09-23T05:25:38.292Z,99.99
2022-09-23T05:26:35.796Z,99.99
2022-09-23T05:27:35.785Z,99.99
2022-09-23T05:28:35.800Z,99.99
2022-09-23T05:29:35.761Z,99.99
2022-09-23T05:30:35.751Z,99.99
2022-09-23T05:31:35.799Z,99.99
2022-09-23T05:32:35.728Z,99.99
2022-09-23T05:33:35.719Z,99.99
2022-09-23T05:34:35.708Z,99.99
2022-09-23T05:35:35.695Z,99.99
2022-09-23T05:36:38.413Z,99.99
2022-09-23T05:37:35.713Z,99.99
2022-09-23T05:38:35.662Z,99.99
2022-09-23T05:39:35.661Z,99.99
2022-09-23T05:40:35.722Z,99.99
2022-09-23T05:41:35.651Z,99.99
2022-09-23T05:42:35.615Z,99.99
2022-09-23T05:43:35.607Z,99.99
2022-09-23T05:44:35.598Z,99.99
2022-09-23T05:45:35.584Z,99.99
2022-09-23T05:46:35.627Z,99.99
2022-09-23T05:47:35.579Z,99.99
2022-09-23T05:48:35.562Z,99.99
2022-09-23T05:49:58.102Z,99.99
2022-09-23T05:50:36.526Z,99.99
2022-09-23T05:51:35.544Z,99.99
2022-09-23T05:52:35.528Z,99.99
2022-09-23T05:53:35.508Z,99.99
2022-09-23T05:54:35.482Z,99.99
2022-09-23T05:55:35.473Z,99.99
2022-09-23T05:56:35.465Z,99.99
2022-09-23T05:57:35.470Z,99.99
2022-09-23T05:58:35.437Z,99.99
2022-09-23T05:59:35.426Z,99.99
2022-09-23T06:00:35.419Z,99.99
2022-09-23T06:01:35.647Z,99.99
2022-09-23T06:02:35.500Z,99.99
2022-09-23T06:03:35.402Z,99.99
2022-09-23T06:04:35.369Z,99.99
2022-09-23T06:05:35.358Z,99.99
2022-09-23T06:06:35.350Z,99.99
2022-09-23T06:07:35.336Z,99.99
2022-09-23T06:08:35.345Z,99.99
2022-09-23T06:09:36.725Z,99.99
2022-09-23T06:10:35.304Z,99.99
2022-09-23T06:11:35.302Z,99.99
2022-09-23T06:12:35.303Z,99.99
2022-09-23T06:13:35.296Z,99.99
2022-09-23T06:14:35.259Z,99.99
2022-09-23T06:15:35.246Z,99.99
2022-09-23T06:16:35.419Z,99.99
2022-09-23T06:17:35.283Z,99.99
2022-09-23T06:18:35.210Z,99.99
2022-09-23T06:19:35.201Z,99.99
2022-09-23T06:20:35.190Z,99.99
2022-09-23T06:21:35.208Z,99.99
2022-09-23T06:22:38.858Z,99.99
2022-09-23T06:23:38.137Z,99.99
2022-09-23T06:24:35.146Z,99.99
2022-09-23T06:25:35.162Z,99.99
2022-09-23T06:26:35.519Z,99.99
2022-09-23T06:27:35.119Z,99.99
2022-09-23T06:28:35.122Z,99.99
2022-09-23T06:29:35.122Z,99.99
2022-09-23T06:30:35.075Z,99.99
2022-09-23T06:31:35.116Z,99.99
2022-09-23T06:32:35.057Z,99.99
2022-09-23T06:33:37.272Z,99.99
2022-09-23T06:34:47.043Z,99.99
2022-09-23T06:35:36.031Z,99.99
2022-09-23T06:36:43.239Z,99.99
2022-09-23T06:37:36.002Z,99.99
2022-09-23T06:38:35.008Z,99.99
2022-09-23T06:39:34.994Z,99.99
2022-09-23T06:40:34.998Z,99.76
2022-09-23T06:41:34.971Z,99.99
2022-09-23T06:42:34.944Z,99.96
2022-09-23T06:43:34.950Z,99.65
2022-09-23T06:44:34.922Z,99.55
2022-09-23T06:45:34.940Z,99.44
2022-09-23T06:46:34.951Z,99.44
2022-09-23T06:47:34.884Z,99.14
2022-09-23T06:48:34.876Z,98.79
2022-09-23T06:49:34.861Z,98.99
2022-09-23T06:50:34.852Z,98.58
2022-09-23T06:51:34.867Z,98.74
2022-09-23T06:52:34.831Z,98.53
2022-09-23T06:53:34.837Z,98.38
2022-09-23T06:54:34.806Z,98.38
2022-09-23T06:55:34.794Z,98.18
2022-09-23T06:56:38.731Z,97.97
2022-09-23T06:57:34.870Z,97.36
2022-09-23T06:58:34.758Z,96.73
2022-09-23T06:59:34.768Z,97.05
2022-09-23T07:00:34.736Z,96.64
2022-09-23T07:01:34.862Z,96.43
2022-09-23T07:02:34.898Z,96.08
2022-09-23T07:03:34.700Z,95.87
2022-09-23T07:04:34.712Z,96.08
2022-09-23T07:05:34.678Z,95.77
2022-09-23T07:06:34.669Z,95.10
2022-09-23T07:07:34.658Z,95.01
2022-09-23T07:08:34.645Z,94.59
2022-09-23T07:09:34.658Z,94.85
2022-09-23T07:10:34.625Z,94.24
2022-09-23T07:11:34.612Z,93.93
2022-09-23T07:12:34.601Z,94.34
2022-09-23T07:13:34.605Z,93.32
2022-09-23T07:14:34.601Z,92.97
2022-09-23T07:15:34.601Z,93.48
2022-09-23T07:16:34.557Z,93.59
2022-09-23T07:17:34.544Z,92.86
2022-09-23T07:18:36.886Z,93.27
2022-09-23T07:19:34.544Z,92.93
2022-09-23T07:20:34.509Z,93.23
2022-09-23T07:21:34.502Z,92.72
2022-09-23T07:22:34.487Z,92.61
2022-09-23T07:23:34.481Z,92.00
2022-09-23T07:24:34.494Z,91.18
2022-09-23T07:25:34.472Z,91.03
2022-09-23T07:26:34.442Z,90.52
2022-09-23T07:27:34.433Z,90.32
2022-09-23T07:28:34.425Z,89.90
2022-09-23T07:29:44.671Z,90.11
2022-09-23T07:30:35.397Z,90.01
2022-09-23T07:31:39.204Z,90.07
2022-09-23T07:32:45.893Z,89.56
2022-09-23T07:33:35.403Z,89.56
2022-09-23T07:34:34.395Z,88.43
2022-09-23T07:35:34.342Z,88.53
2022-09-23T07:36:34.330Z,88.64
2022-09-23T07:37:34.322Z,88.84
2022-09-23T07:38:34.317Z,89.15
2022-09-23T07:39:34.300Z,89.45
2022-09-23T07:40:34.583Z,88.84
2022-09-23T07:41:34.278Z,88.49
2022-09-23T07:42:34.315Z,90.03
2022-09-23T07:43:34.253Z,89.42
2022-09-23T07:44:34.240Z,88.70
2022-09-23T07:45:34.267Z,88.59
2022-09-23T07:46:34.304Z,88.08
2022-09-23T07:47:34.207Z,87.84
2022-09-23T07:48:34.806Z,87.32
2022-09-23T07:49:34.183Z,87.67
2022-09-23T07:50:34.202Z,87.94
2022-09-23T07:51:36.433Z,88.04
2022-09-23T07:52:34.157Z,88.00
2022-09-23T07:53:34.141Z,87.70
2022-09-23T07:54:34.125Z,87.76
2022-09-23T07:55:34.118Z,87.76
2022-09-23T07:56:34.126Z,87.61
2022-09-23T07:57:34.094Z,86.79
2022-09-23T07:58:34.082Z,86.38
2022-09-23T07:59:34.072Z,85.73
2022-09-23T08:00:34.060Z,86.44
2022-09-23T08:01:34.161Z,85.73
2022-09-23T08:02:34.107Z,84.77
2022-09-23T08:03:34.024Z,84.77
2022-09-23T08:04:34.015Z,84.77
2022-09-23T08:05:34.008Z,84.94
2022-09-23T08:06:34.011Z,84.22
2022-09-23T08:07:33.987Z,84.39
2022-09-23T08:08:33.986Z,84.22
2022-09-23T08:09:33.980Z,83.47
2022-09-23T08:10:33.947Z,84.18
2022-09-23T08:11:33.937Z,83.23
2022-09-23T08:12:33.946Z,82.41
2022-09-23T08:13:33.937Z,82.17
2022-09-23T08:14:33.901Z,82.71
2022-09-23T08:15:33.934Z,80.64
2022-09-23T08:16:33.876Z,79.93
2022-09-23T08:17:33.905Z,80.13
2022-09-23T08:18:33.853Z,80.70
2022-09-23T08:19:33.845Z,79.48
2022-09-23T08:20:33.836Z,79.44
2022-09-23T08:21:33.824Z,79.81
2022-09-23T08:22:33.832Z,79.20
2022-09-23T08:23:33.802Z,79.10
2022-09-23T08:24:33.788Z,78.66
2022-09-23T08:25:34.840Z,79.06
2022-09-23T08:26:33.785Z,76.89
2022-09-23T08:27:33.756Z,77.60
2022-09-23T08:28:33.751Z,76.95
2022-09-23T08:29:33.774Z,75.84
2022-09-23T08:30:33.718Z,76.75
2022-09-23T08:31:33.706Z,76.21
2022-09-23T08:32:33.696Z,76.31
2022-09-23T08:33:33.789Z,76.10
2022-09-23T08:34:33.698Z,75.73
2022-09-23T08:35:33.661Z,73.60
2022-09-23T08:36:33.650Z,73.29
2022-09-23T08:37:33.660Z,73.16
2022-09-23T08:38:33.625Z,73.57
2022-09-23T08:39:33.616Z,73.02
2022-09-23T08:40:33.873Z,73.33
2022-09-23T08:41:33.617Z,73.09
2022-09-23T08:42:33.586Z,73.29
2022-09-23T08:43:33.572Z,73.39
2022-09-23T08:44:33.561Z,73.05
2022-09-23T08:45:33.547Z,71.60
2022-09-23T08:46:33.607Z,71.20
2022-09-23T08:47:33.527Z,72.01
2022-09-23T08:48:33.512Z,71.00
2022-09-23T08:49:33.829Z,71.80
2022-09-23T08:50:33.493Z,72.78
2022-09-23T08:51:33.484Z,72.34
2022-09-23T08:52:33.467Z,72.44
2022-09-23T08:53:33.460Z,71.73
2022-09-23T08:54:33.448Z,71.94
2022-09-23T08:55:33.460Z,72.34
2022-09-23T08:56:35.434Z,71.73
2022-09-23T08:57:33.414Z,70.32
2022-09-23T08:58:33.400Z,68.84
2022-09-23T08:59:33.396Z,70.96
2022-09-23T09:00:33.400Z,71.94
2022-09-23T09:01:33.406Z,72.14
2022-09-23T09:02:33.405Z,70.32
2022-09-23T09:03:33.358Z,68.19
2022-09-23T09:04:33.335Z,69.18
2022-09-23T09:05:33.408Z,69.71
2022-09-23T09:06:41.852Z,70.02
2022-09-23T09:07:37.011Z,69.41
2022-09-23T09:08:33.287Z,69.81
2022-09-23T09:09:33.284Z,69.92
2022-09-23T09:10:33.272Z,69.01
2022-09-23T09:11:33.254Z,68.53
2022-09-23T09:12:33.263Z,69.21
2022-09-23T09:13:33.232Z,67.18
2022-09-23T09:14:33.249Z,67.39
2022-09-23T09:15:33.248Z,67.86
2022-09-23T09:16:58.411Z,67.46
2022-09-23T09:17:35.101Z,67.83
2022-09-23T09:18:33.197Z,67.02
2022-09-23T09:19:33.171Z,65.78
2022-09-23T09:20:33.184Z,66.38
2022-09-23T09:21:33.196Z,65.78
2022-09-23T09:22:33.183Z,63.76
2022-09-23T09:23:33.123Z,66.78
2022-09-23T09:24:33.134Z,65.21
2022-09-23T09:25:34.331Z,64.81
2022-09-23T09:26:33.086Z,63.76
2022-09-23T09:27:33.074Z,64.67
2022-09-23T09:28:33.061Z,64.47
2022-09-23T09:29:35.702Z,64.34
2022-09-23T09:30:33.065Z,63.64
2022-09-23T09:31:33.060Z,62.49
2022-09-23T09:32:33.017Z,64.21
2022-09-23T09:33:33.006Z,63.81
2022-09-23T09:34:33.065Z,64.48
2022-09-23T09:35:32.986Z,62.77
2022-09-23T09:36:32.976Z,62.97
2022-09-23T09:37:33.000Z,63.07
2022-09-23T09:38:32.947Z,61.46
2022-09-23T09:39:33.030Z,61.86
2022-09-23T09:40:33.011Z,61.86
2022-09-23T09:41:32.918Z,61.79
2022-09-23T09:42:32.903Z,62.90
2022-09-23T09:43:32.893Z,63.57
2022-09-23T09:44:32.881Z,63.70
2022-09-23T09:45:33.561Z,63.17
2022-09-23T09:46:32.938Z,63.47
2022-09-23T09:47:32.871Z,62.77
2022-09-23T09:48:32.841Z,61.16
2022-09-23T09:49:36.744Z,61.86
2022-09-23T09:50:33.811Z,61.93
2022-09-23T09:51:32.823Z,60.12
2022-09-23T09:52:32.792Z,61.43
2022-09-23T09:53:32.755Z,58.81
2022-09-23T09:54:32.714Z,60.32
2022-09-23T09:55:32.703Z,60.02
2022-09-23T09:56:33.165Z,60.32
2022-09-23T09:57:35.364Z,60.29
2022-09-23T09:58:32.667Z,60.49
2022-09-23T09:59:32.663Z,61.40
2022-09-23T10:00:32.650Z,60.29
2022-09-23T10:01:32.782Z,59.89
2022-09-23T10:02:32.623Z,59.89
2022-09-23T10:03:32.634Z,61.67
2022-09-23T10:04:32.639Z,59.86
2022-09-23T10:05:32.592Z,58.86
2022-09-23T10:06:32.659Z,58.55
2022-09-23T10:07:32.566Z,58.86
2022-09-23T10:08:32.579Z,57.24
2022-09-23T10:09:32.562Z,57.65
2022-09-23T10:10:33.449Z,57.04
2022-09-23T10:11:32.522Z,57.45
2022-09-23T10:12:32.529Z,58.15
2022-09-23T10:13:32.554Z,59.23
2022-09-23T10:14:32.486Z,57.04
2022-09-23T10:15:32.498Z,59.63
2022-09-23T10:16:32.612Z,58.02
2022-09-23T10:17:32.452Z,57.52
2022-09-23T10:18:32.440Z,59.00
2022-09-23T10:19:32.430Z,59.91
2022-09-23T10:20:32.414Z,57.59
2022-09-23T10:21:32.408Z,57.39
2022-09-23T10:22:32.414Z,58.29
2022-09-23T10:23:32.384Z,58.67
2022-09-23T10:24:32.410Z,59.08
2022-09-23T10:25:32.382Z,58.14
2022-09-23T10:26:32.372Z,58.11
2022-09-23T10:27:32.365Z,57.24
2022-09-23T10:28:32.326Z,57.64
2022-09-23T10:29:32.318Z,57.51
2022-09-23T10:30:32.340Z,55.16
2022-09-23T10:31:32.302Z,57.37
2022-09-23T10:32:32.304Z,56.69
2022-09-23T10:33:32.272Z,56.89
2022-09-23T10:34:32.263Z,58.40
2022-09-23T10:35:32.250Z,59.08
2022-09-23T10:36:32.246Z,56.16
2022-09-23T10:37:32.249Z,57.37
2022-09-23T10:38:32.217Z,55.66
2022-09-23T10:39:32.210Z,57.04
2022-09-23T10:40:32.255Z,57.41
2022-09-23T10:41:32.202Z,56.01
2022-09-23T10:42:32.198Z,57.39
2022-09-23T10:43:32.168Z,53.70
2022-09-23T10:44:32.151Z,56.43
2022-09-23T10:45:32.142Z,55.51
2022-09-23T10:46:32.177Z,57.11
2022-09-23T10:47:32.123Z,56.10
2022-09-23T10:48:32.133Z,55.91
2022-09-23T10:49:32.103Z,53.62
2022-09-23T10:50:32.087Z,55.66
2022-09-23T10:51:32.134Z,56.49
2022-09-23T10:52:32.098Z,55.28
2022-09-23T10:53:32.057Z,56.49
2022-09-23T10:54:32.045Z,55.79
2022-09-23T10:55:32.034Z,55.48
2022-09-23T10:56:32.042Z,54.80
2022-09-23T10:57:32.033Z,56.21
2022-09-23T10:58:32.000Z,57.39
2022-09-23T10:59:31.997Z,57.17
2022-09-23T11:00:31.988Z,56.84
2022-09-23T11:01:32.018Z,54.35
2022-09-23T11:02:31.977Z,55.23
2022-09-23T11:03:31.949Z,55.13
2022-09-23T11:04:31.965Z,55.63
2022-09-23T11:05:31.924Z,54.60
2022-09-23T11:06:31.937Z,54.68
2022-09-23T11:07:36.799Z,55.35
2022-09-23T11:08:32.893Z,55.45
2022-09-23T11:09:31.881Z,55.40
2022-09-23T11:10:46.959Z,55.00
2022-09-23T11:11:32.890Z,54.50
2022-09-23T11:12:31.850Z,52.19
2022-09-23T11:13:31.867Z,53.00
2022-09-23T11:14:31.831Z,53.80
2022-09-23T11:15:31.842Z,52.27
2022-09-23T11:16:31.850Z,52.80
2022-09-23T11:17:31.805Z,52.89
2022-09-23T11:18:31.786Z,53.09
2022-09-23T11:19:31.799Z,53.00
2022-09-23T11:20:31.762Z,53.37
2022-09-23T11:21:31.754Z,52.07
2022-09-23T11:22:31.762Z,52.47
2022-09-23T11:23:31.730Z,51.97
2022-09-23T11:24:31.719Z,50.67
2022-09-23T11:25:31.710Z,51.77
2022-09-23T11:26:33.241Z,51.29
2022-09-23T11:27:31.706Z,51.89
2022-09-23T11:28:31.675Z,52.80
2022-09-23T11:29:31.680Z,52.29
2022-09-23T11:30:31.741Z,50.79
2022-09-23T11:31:31.653Z,51.29
2022-09-23T11:32:31.654Z,51.39
2022-09-23T11:33:31.628Z,51.39
2022-09-23T11:34:31.613Z,51.42
2022-09-23T11:35:31.596Z,52.92
2022-09-23T11:36:31.600Z,52.44
2022-09-23T11:37:31.596Z,51.94
2022-09-23T11:38:31.566Z,53.34
2022-09-23T11:39:31.551Z,52.77
2022-09-23T11:40:31.584Z,52.97
2022-09-23T11:41:31.532Z,52.84
2022-09-23T11:42:31.540Z,53.07
2022-09-23T11:43:31.506Z,52.97
2022-09-23T11:44:31.501Z,52.87
2022-09-23T11:45:31.690Z,52.49
2022-09-23T11:46:31.521Z,53.09
2022-09-23T11:47:32.822Z,52.89
2022-09-23T11:48:31.482Z,53.52
2022-09-23T11:49:31.444Z,53.12
2022-09-23T11:50:31.430Z,52.12
2022-09-23T11:51:31.421Z,52.14
2022-09-23T11:52:31.411Z,52.12
2022-09-23T11:53:31.419Z,53.62
2022-09-23T11:54:31.390Z,56.34
2022-09-23T11:55:31.377Z,55.60
2022-09-23T11:56:35.729Z,55.40
2022-09-23T11:57:44.144Z,54.90
2022-09-23T11:58:32.427Z,55.10
2022-09-23T11:59:39.214Z,54.70
2022-09-23T12:00:32.323Z,55.78
2022-09-23T12:01:37.115Z,55.40
2022-09-23T12:02:32.397Z,53.17
2022-09-23T12:03:41.666Z,54.58
2022-09-23T12:04:32.429Z,54.68
2022-09-23T12:05:31.453Z,55.18
2022-09-23T12:06:31.261Z,53.34
2022-09-23T12:07:31.244Z,53.25
2022-09-23T12:08:31.237Z,51.87
2022-09-23T12:09:56.906Z,52.26
2022-09-23T12:10:32.214Z,51.29
2022-09-23T12:11:31.378Z,52.49
2022-09-23T12:12:31.203Z,54.10
2022-09-23T12:13:31.210Z,54.90
2022-09-23T12:14:31.190Z,55.30
2022-09-23T12:15:31.172Z,54.20
2022-09-23T12:16:31.221Z,51.39
2022-09-23T12:17:31.183Z,53.22
2022-09-23T12:18:31.129Z,53.34
2022-09-23T12:19:31.131Z,55.05
2022-09-23T12:20:31.104Z,55.26
2022-09-23T12:21:49.762Z,54.35
2022-09-23T12:22:32.102Z,54.75
2022-09-23T12:23:31.069Z,54.35
2022-09-23T12:24:31.057Z,53.52
2022-09-23T12:25:31.048Z,52.34
2022-09-23T12:26:31.047Z,54.72
2022-09-23T12:27:31.048Z,53.22
2022-09-23T12:28:31.012Z,54.53
2022-09-23T12:29:31.013Z,54.43
2022-09-23T12:30:31.058Z,54.83
2022-09-23T12:31:31.065Z,53.37
2022-09-23T12:32:30.988Z,51.89
2022-09-23T12:33:30.972Z,52.57
2022-09-23T12:34:30.944Z,51.59
2022-09-23T12:35:30.959Z,52.59
2022-09-23T12:36:30.924Z,51.69
2022-09-23T12:37:30.914Z,53.37
2022-09-23T12:38:30.900Z,52.39
2022-09-23T12:39:30.916Z,50.99
2022-09-23T12:40:30.933Z,49.60
2022-09-23T12:41:30.890Z,52.34
2022-09-23T12:42:31.426Z,53.02
2022-09-23T12:43:30.845Z,51.92
2022-09-23T12:44:30.836Z,51.94
2022-09-23T12:45:30.851Z,53.05
2022-09-23T12:46:30.815Z,53.45
2022-09-23T12:47:30.813Z,51.86
2022-09-23T12:48:30.792Z,51.94
2022-09-23T12:49:30.875Z,51.94
2022-09-23T12:50:30.793Z,53.65
2022-09-23T12:51:30.788Z,54.96
2022-09-23T12:52:30.751Z,54.43